• Join FlightAware (Why Join?)
  • Login
  • US Flag 
07:58PM EST


 

Airport Tracker/Info


-or-


 

Live Flight TrackerFlight Track Log ✈ WIG7407 ✈ 05-Nov-2013 ✈ KPBG - KALB

Flight Track Log - Related Links

Times and Time Zones

All times are in EST time to prevent confusion due to time zone crossing. See the WIG7407 flight status page for this flight to view local times or setup timezone preferences in your user account.

Time Position Orientation Groundspeed Altitude Reporting Facility
EST Latitude Longitude Course Direction KTS MPH feet Rate Location/Type
07:54PM 44.5206 -73.4800 187° South 121 139 4,600  Level Boston Center
07:55PM 44.4767 -73.4867 186° South 132 152 5,500 720 Climbing Boston Center
07:56PM 44.4403 -73.4919 186° South 135 155 6,200 660 Climbing Boston Center
07:57PM 44.4019 -73.4997 188° South 141 162 6,900 780 Climbing Boston Center
07:58PM 44.4413 -73.5060 189° South  Level Estimated
07:58PM 44.3611 -73.5081 188° South 138 159 7,800  Level Boston Center
07:59PM 44.4064 -73.5121 187° South  Level FlightAware Approximate
07:59PM 44.3214 -73.5156 188° South 147 169 8,000  Level Boston Center
08:00PM 44.2739 -73.5261 189° South 159 183 7,900  Descending Boston Center
08:01PM 44.2322 -73.5325 186° South 153 176 8,000  Climbing Boston Center
08:02PM 44.1903 -73.5406 188° South 154 177 7,900  Descending Boston Center
08:03PM 44.1447 -73.5497 188° South 154 177 8,000  Climbing Boston Center
08:04PM 44.1022 -73.5578 188° South 156 180 7,900  Descending Boston Center
08:05PM 44.0614 -73.5658 188° South 149 171 8,000  Climbing Boston Center
08:06PM 44.0164 -73.5742 188° South 154 177 8,000 -60 Level Boston Center
08:07PM 43.9744 -73.5833 189° South 154 177 7,900  Descending Boston Center
08:08PM 43.9342 -73.5903 187° South 147 169 8,000  Climbing Boston Center
08:09PM 43.8889 -73.5981 187° South 150 173 8,000  Level Boston Center
08:10PM 43.8467 -73.6058 188° South 154 177 8,000  Level Boston Center
08:11PM 43.8047 -73.6139 188° South 155 178 8,000  Level Boston Center
08:12PM 43.7603 -73.6214 187° South 149 171 8,000  Level Boston Center
08:13PM 43.7192 -73.6286 187° South 151 174 8,000  Level Boston Center
08:14PM 43.6783 -73.6347 186° South 148 170 8,000 60 Level Boston Center
08:15PM 43.6525 -73.6392 187° South 147 169 8,100  Climbing Boston Center
08:15PM 43.6419 -73.6394 181° South 147 169 8,000  Descending Boston Center
08:15PM 43.6239 -73.6442 191° South 146 168 8,100 60 Climbing Boston Center
08:17PM 43.5839 -73.6514 187° South 148 170 8,100 -120 Level Boston Center
08:17PM 43.5517 -73.6578 188° South 150 173 7,900 -120 Descending Boston Center
08:18PM 43.5436 -73.6611 197° South 150 173 8,000 60 Climbing Boston Center
08:18PM 43.5106 -73.6658 186° South 151 174 8,000 60 Level Boston Center
08:18PM 43.5017 -73.6675 188° South 150 173 8,100  Climbing Boston Center
08:19PM 43.4697 -73.6717 185° South 149 171 8,000  Descending Boston Center
08:20PM 43.4597 -73.6739 189° South 149 171 8,100  Climbing Boston Center
08:20PM 43.4275 -73.6803 188° South 152 175 8,000  Descending Boston Center
08:21PM 43.4158 -73.6797 178° South 151 174 8,100  Climbing Boston Center
08:21PM 43.3844 -73.6878 191° South 152 175 8,000  Descending Boston Center
08:22PM 43.3733 -73.6889 184° South 152 175 8,100 -300 Climbing Boston Center
08:22PM 43.3378 -73.6967 189° South 157 181 7,700 -420 Descending Boston Center
08:23PM 43.3308 -73.6981 188° South 157 181 7,700 -420 Level Boston Center
08:24PM 43.2839 -73.7083 189° South 173 199 7,200 -600 Descending Boston Center
08:24PM 43.2461 -73.7222 195° South 169 194 6,600 -600 Descending Boston Center
08:25PM 43.2378 -73.7253 195° South 168 193 6,600 -540 Level Boston Center
08:25PM 43.2017 -73.7347 191° South 164 189 6,100 -600 Descending Boston Center
08:26PM 43.1950 -73.7369 194° South 164 189 6,000 -540 Descending Boston Center
08:26PM 43.1519 -73.7478 190° South 170 196 5,600 -360 Descending Boston Center
08:26PM 43.1519 -73.7489 270° West 168 193 5,700 -420 Climbing Boston Center
08:28PM 43.1069 -73.7600 190° South 168 193 5,200 -540 Descending Boston Center
08:28PM 43.0608 -73.7736 192° South 167 192 4,700 -540 Descending Boston Center
08:29PM 43.0617 -73.7739 346° North 167 192 4,700 -480 Level Boston Center
08:30PM 43.0178 -73.7861 192° South 161 185 4,200 -600 Descending Boston Center
08:31PM 42.9717 -73.7986 191° South 158 182 3,600 -480 Descending Boston Center
08:32PM 42.9303 -73.8111 192° South 153 176 3,300 -360 Descending Boston Center
08:33PM 42.8883 -73.8108 180° South 151 174 2,900 -600 Descending Boston Center
08:34PM 42.8442 -73.8086 178° South 157 181 2,100 -900 Descending Boston Center
08:35PM 42.7997 -73.8078 179° South 156 180 1,100 -960 Descending Boston Center
08:35PM 42.7983 -73.8069 156° South 155 178 1,100 -600 Level Boston Center
08:36PM 42.7667 -73.8061 179° South 110 127 500 -420 Descending Boston Center
08:37PM 42.7561 -73.8050 176° South 41 47 300 -240 Descending Boston Center
08:39PM 42.7491 -73.8020 190° South  Level Estimated
08:46PM 42.7491 -73.8020 190° South  Level Estimated